createdAt,value
2023-05-07T18:00:14.832Z,68.70
2023-05-07T18:02:42.090Z,69.60
2023-05-07T18:05:09.499Z,71.60
2023-05-07T18:07:36.582Z,72.80
2023-05-07T18:10:03.552Z,74.00
2023-05-07T18:12:30.369Z,74.40
2023-05-07T18:14:57.216Z,75.00
2023-05-07T18:17:24.292Z,75.30
2023-05-07T18:19:54.563Z,75.10
2023-05-07T18:22:21.680Z,75.50
2023-05-07T18:24:49.660Z,76.80
2023-05-07T18:27:16.404Z,77.60
2023-05-07T18:29:43.295Z,77.90
2023-05-07T18:32:10.201Z,77.50
2023-05-07T18:34:37.018Z,77.50
2023-05-07T18:37:03.841Z,78.80
2023-05-07T18:39:31.961Z,79.10
2023-05-07T18:42:01.722Z,80.40
2023-05-07T18:44:28.525Z,80.40
2023-05-07T18:46:55.290Z,81.30
2023-05-07T18:49:22.143Z,81.80
2023-05-07T18:51:49.707Z,81.20
2023-05-07T18:54:16.518Z,81.20
2023-05-07T18:56:43.291Z,82.20
2023-05-07T18:59:10.268Z,83.00
2023-05-07T19:01:37.077Z,83.20
2023-05-07T19:04:04.026Z,82.80
2023-05-07T19:06:33.387Z,81.80
2023-05-07T19:09:00.667Z,81.80
2023-05-07T19:11:27.617Z,81.40
2023-05-07T19:13:56.969Z,81.20
2023-05-07T19:16:23.912Z,81.00
2023-05-07T19:18:51.364Z,80.90
2023-05-07T19:21:18.228Z,81.60
2023-05-07T19:23:46.169Z,80.80
2023-05-07T19:26:12.993Z,80.30
2023-05-07T19:28:45.273Z,80.60
2023-05-07T19:31:22.504Z,80.90
2023-05-07T19:33:49.602Z,80.50
2023-05-07T19:36:17.364Z,80.30
2023-05-07T19:38:45.114Z,79.90
2023-05-07T19:41:12.411Z,80.30
2023-05-07T19:43:39.890Z,81.70
2023-05-07T19:46:06.911Z,81.50
2023-05-07T19:48:33.706Z,81.90
2023-05-07T19:51:00.803Z,81.40
2023-05-07T19:53:30.067Z,81.10
2023-05-07T19:56:07.851Z,81.70
2023-05-07T19:58:35.949Z,81.40
2023-05-07T20:01:07.174Z,81.20
2023-05-07T20:03:34.364Z,81.60
2023-05-07T20:06:02.268Z,82.00
